Sunday, January 20, 2019, 1:00 AM GMT
Back to Local

CWTY, Trois Rivieres

Location: , , Canada Lat: 46.35
Local Time: 1:00 AM GMT ( 1:00 GMT) Lon: -72.517
Time Zone: GMT Elev: 19 ft

Show me the last for .
Show Coded

Time T Td Feel RH Dir Speed Gust Alt SLP Vis Weather Sky Remarks
2019-01-20 00:00 -8 -20 -22 54 10° 7 - - 30.42 0 None
2019-01-19 23:00 -8 -20 -21 54 10° 6 - - 30.45 0 None
2019-01-19 22:00 -7 -21 -18 47 360° 5 - - 30.47 0 None
2019-01-19 21:00 -9 -23 -20 48 10° 5 - - 30.47 0 None
2019-01-19 20:00 -10 -24 -23 48 340° 6 - - 30.46 0 None
2019-01-19 19:00 -11 -24 -28 52 320° 8 - - 30.45 0 None
2019-01-19 18:00 -12 -26 -28 48 320° 7 - - 30.48 0 None
2019-01-19 17:00 -13 -23 -32 59 340° 9 - - 30.53 0 None
2019-01-19 16:00 -15 -24 -34 64 330° 9 - - 30.55 0 None
2019-01-19 15:00 -17 -25 -34 62 330° 8 - - 30.58 0 None
2019-01-19 14:00 -17 -25 -37 65 330° 9 - - 30.55 0 None
2019-01-19 13:00 -17 -26 -36 62 330° 9 - - 30.52 0 None
2019-01-19 12:00 -16 -24 -34 65 330° 8 - - 30.50 0 None
2019-01-19 11:00 -14 -24 -34 60 320° 10 - - 30.48 0 None
2019-01-19 10:00 -12 -22 -33 61 320° 12 - - 30.46 0 None
2019-01-19 09:00 -10 -22 -29 55 360° 10 - - 30.42 0 None
2019-01-19 08:00 -7 -15 -24 65 350° 10 - - 30.39 0 None
2019-01-19 07:00 -4 -14 -20 61 330° 9 - - 30.35 0 None
2019-01-19 06:00 -1 -12 -16 57 360° 9 - - 30.31 0 Peak wind: 21 mph (19 kts) from 250° at 26 min
2019-01-19 05:00 4 -6 -9 62 320° 8 - - 30.27 0 None
2019-01-19 04:00 7 -3 -8 64 310° 10 - - 30.24 0 Peak wind: 19 mph (17 kts) from 300° at 40 min
2019-01-19 03:00 10 -2 -2 57 280° 8 - - 30.20 0 None
2019-01-19 02:00 12 1 -6 59 280° 12 21 - 30.14 0 Peak wind: 20 mph (18 kts) from 280° at 59 min
2019-01-19 01:00 10 5 - 82 260° 2 - - 30.10 0 None

Support USWX by starting your Amazon purchase here.